createdAt,value
2018-02-19T00:00:08.339Z,925.72
2018-02-19T00:00:20.858Z,925.7
2018-02-19T00:00:33.900Z,925.68
2018-02-19T00:00:46.896Z,925.7
2018-02-19T00:00:59.026Z,925.75
2018-02-19T00:01:11.569Z,925.74
2018-02-19T00:01:24.578Z,925.76
2018-02-19T00:01:37.556Z,925.73
2018-02-19T00:01:50.581Z,925.77
2018-02-19T00:02:03.607Z,925.76
2018-02-19T00:02:16.142Z,925.76
2018-02-19T00:02:28.682Z,925.75
2018-02-19T00:02:41.669Z,925.75
2018-02-19T00:02:54.770Z,925.76
2018-02-19T00:03:07.837Z,925.77
2018-02-19T00:03:20.406Z,925.77
2018-02-19T00:03:32.948Z,925.79
2018-02-19T00:03:45.499Z,925.78
2018-02-19T00:03:58.527Z,925.78
2018-02-19T00:04:11.534Z,925.82
2018-02-19T00:04:24.570Z,925.77
2018-02-19T00:04:37.167Z,925.79
2018-02-19T00:04:50.203Z,925.83
2018-02-19T00:05:03.261Z,925.81
2018-02-19T00:05:16.299Z,925.8
2018-02-19T00:05:28.388Z,925.77
2018-02-19T00:05:40.924Z,925.81
2018-02-19T00:05:53.907Z,925.8
2018-02-19T00:06:06.953Z,925.82
2018-02-19T00:06:19.519Z,925.85
2018-02-19T00:06:32.518Z,925.81
2018-02-19T00:06:45.084Z,925.82
2018-02-19T00:06:57.233Z,925.86
2018-02-19T00:07:10.237Z,925.83
2018-02-19T00:07:22.778Z,925.88
2018-02-19T00:07:35.807Z,925.86
2018-02-19T00:07:47.911Z,925.84
2018-02-19T00:08:00.883Z,925.85
2018-02-19T00:08:13.438Z,925.84
2018-02-19T00:08:25.960Z,925.85
2018-02-19T00:08:38.977Z,925.84
2018-02-19T00:08:51.076Z,925.86
2018-02-19T00:09:04.081Z,925.88
2018-02-19T00:09:16.602Z,925.87
2018-02-19T00:09:28.701Z,925.83
2018-02-19T00:09:41.288Z,925.82
2018-02-19T00:09:54.328Z,925.87
2018-02-19T00:10:06.896Z,925.86
2018-02-19T00:10:19.964Z,925.83
2018-02-19T00:10:32.503Z,925.86
2018-02-19T00:10:45.515Z,925.86
2018-02-19T00:10:58.514Z,925.81
2018-02-19T00:11:10.626Z,925.86
2018-02-19T00:11:23.263Z,925.83
2018-02-19T00:11:35.821Z,925.82
2018-02-19T00:11:47.904Z,925.89
2018-02-19T00:12:00.928Z,925.84
2018-02-19T00:12:13.953Z,925.87
2018-02-19T00:12:26.497Z,925.87
2018-02-19T00:12:39.566Z,925.87
2018-02-19T00:12:52.720Z,925.86
2018-02-19T00:13:05.725Z,925.9
2018-02-19T00:13:18.728Z,925.89
2018-02-19T00:13:31.264Z,925.91
2018-02-19T00:13:44.285Z,925.9
2018-02-19T00:13:56.844Z,925.87
2018-02-19T00:14:10.631Z,925.9
2018-02-19T00:14:23.210Z,925.9
2018-02-19T00:14:36.261Z,925.92
2018-02-19T00:14:48.359Z,925.87
2018-02-19T00:15:00.878Z,925.87
2018-02-19T00:15:13.899Z,925.87
2018-02-19T00:15:26.468Z,925.85
2018-02-19T00:15:39.548Z,925.89
2018-02-19T00:15:51.159Z,925.89
2018-02-19T00:16:03.696Z,925.85
2018-02-19T00:16:16.218Z,925.87
2018-02-19T00:16:28.756Z,925.87
2018-02-19T00:16:41.775Z,925.88
2018-02-19T00:16:54.795Z,925.92
2018-02-19T00:17:06.891Z,925.9
2018-02-19T00:17:19.451Z,925.93
2018-02-19T00:17:32.034Z,925.94
2018-02-19T00:17:45.024Z,925.91
2018-02-19T00:17:58.037Z,925.92
2018-02-19T00:18:11.164Z,925.92
2018-02-19T00:18:24.257Z,925.92
2018-02-19T00:18:37.260Z,925.9
2018-02-19T00:18:50.261Z,925.92
2018-02-19T00:19:03.280Z,925.96
2018-02-19T00:19:16.314Z,925.95
2018-02-19T00:19:28.847Z,925.96
2018-02-19T00:19:41.441Z,925.96
2018-02-19T00:19:54.036Z,925.95
2018-02-19T00:20:06.096Z,925.94
2018-02-19T00:20:18.649Z,925.96
2018-02-19T00:20:31.223Z,925.95
2018-02-19T00:20:44.254Z,925.98
2018-02-19T00:20:56.788Z,925.98
2018-02-19T00:21:08.935Z,925.96
2018-02-19T00:21:21.510Z,925.98
2018-02-19T00:21:34.522Z,925.98
2018-02-19T00:21:47.514Z,925.97
2018-02-19T00:22:00.546Z,925.96
2018-02-19T00:22:13.573Z,925.97
2018-02-19T00:22:26.122Z,926
2018-02-19T00:22:38.688Z,925.96
2018-02-19T00:22:51.710Z,925.95
2018-02-19T00:23:04.742Z,925.95
2018-02-19T00:23:16.843Z,925.93
2018-02-19T00:23:29.386Z,925.94
2018-02-19T00:23:42.391Z,925.95
2018-02-19T00:23:55.450Z,925.95
2018-02-19T00:24:08.461Z,925.95
2018-02-19T00:24:21.503Z,925.97
2018-02-19T00:24:34.597Z,925.98
2018-02-19T00:24:47.696Z,925.94
2018-02-19T00:25:00.738Z,925.96
2018-02-19T00:25:12.839Z,925.9
2018-02-19T00:25:25.857Z,925.93
2018-02-19T00:25:38.932Z,925.92
2018-02-19T00:25:51.930Z,925.96
2018-02-19T00:26:04.449Z,925.93
2018-02-19T00:26:17.512Z,925.92
2018-02-19T00:26:30.564Z,925.93
2018-02-19T00:26:43.588Z,925.93
2018-02-19T00:26:56.623Z,925.93
2018-02-19T00:27:09.165Z,925.9
2018-02-19T00:27:21.224Z,925.9
2018-02-19T00:27:34.211Z,925.92
2018-02-19T00:27:47.294Z,925.9
2018-02-19T00:28:00.356Z,925.86
2018-02-19T00:28:12.424Z,925.93
2018-02-19T00:28:24.947Z,925.89
2018-02-19T00:28:37.972Z,925.9
2018-02-19T00:28:51.003Z,925.9
2018-02-19T00:29:04.083Z,925.89
2018-02-19T00:29:17.930Z,925.9
2018-02-19T00:29:30.905Z,925.9
2018-02-19T00:29:43.993Z,925.88
2018-02-19T00:29:56.987Z,925.88
2018-02-19T00:30:09.565Z,925.87
2018-02-19T00:30:22.125Z,925.84
2018-02-19T00:30:34.629Z,925.87
2018-02-19T00:30:47.175Z,925.86
2018-02-19T00:31:00.137Z,925.86
2018-02-19T00:31:13.157Z,925.84
2018-02-19T00:31:25.686Z,925.84
2018-02-19T00:31:37.742Z,925.82
2018-02-19T00:31:50.818Z,925.83
2018-02-19T00:32:03.410Z,925.87
2018-02-19T00:32:16.434Z,925.8
2018-02-19T00:32:29.499Z,925.79
2018-02-19T00:32:42.546Z,925.83
2018-02-19T00:32:55.536Z,925.79
2018-02-19T00:33:07.677Z,925.81
2018-02-19T00:33:20.688Z,925.75
2018-02-19T00:33:33.682Z,925.79
2018-02-19T00:33:46.708Z,925.73
2018-02-19T00:33:59.704Z,925.75
2018-02-19T00:34:11.784Z,925.77
2018-02-19T00:34:24.820Z,925.77
2018-02-19T00:34:37.829Z,925.76
2018-02-19T00:34:50.829Z,925.79
2018-02-19T00:35:03.837Z,925.77
2018-02-19T00:35:15.004Z,925.75
2018-02-19T00:35:28.025Z,925.76
2018-02-19T00:35:41.153Z,925.74
2018-02-19T00:35:54.286Z,925.79
2018-02-19T00:36:06.841Z,925.76
2018-02-19T00:36:18.984Z,925.75
2018-02-19T00:36:31.592Z,925.78
2018-02-19T00:36:44.584Z,925.79
2018-02-19T00:36:57.637Z,925.76
2018-02-19T00:37:09.758Z,925.81
2018-02-19T00:37:22.341Z,925.79
2018-02-19T00:37:35.318Z,925.84
2018-02-19T00:37:48.294Z,925.74
2018-02-19T00:38:01.310Z,925.8
2018-02-19T00:38:14.351Z,925.83
2018-02-19T00:38:27.382Z,925.86
2018-02-19T00:38:40.455Z,925.84
2018-02-19T00:38:53.555Z,925.85
2018-02-19T00:39:06.575Z,925.86
2018-02-19T00:39:18.634Z,925.85
2018-02-19T00:39:31.193Z,925.86
2018-02-19T00:39:43.715Z,925.84
2018-02-19T00:39:56.721Z,925.83
2018-02-19T00:40:09.726Z,925.81
2018-02-19T00:40:22.306Z,925.84
2018-02-19T00:40:35.304Z,925.85
2018-02-19T00:40:48.351Z,925.82
2018-02-19T00:41:00.890Z,925.84
2018-02-19T00:41:13.953Z,925.83
2018-02-19T00:41:26.963Z,925.84
2018-02-19T00:41:40.005Z,925.86
2018-02-19T00:41:52.578Z,925.85
2018-02-19T00:42:05.576Z,925.88
2018-02-19T00:42:18.146Z,925.82
2018-02-19T00:42:30.696Z,925.84
2018-02-19T00:42:43.735Z,925.84
2018-02-19T00:42:56.810Z,925.83
2018-02-19T00:43:08.916Z,925.83
2018-02-19T00:43:21.986Z,925.83
2018-02-19T00:43:35.040Z,925.83
2018-02-19T00:43:48.080Z,925.81
2018-02-19T00:44:01.146Z,925.8
2018-02-19T00:44:14.073Z,925.83
2018-02-19T00:44:25.684Z,925.8
2018-02-19T00:44:38.272Z,925.79
2018-02-19T00:44:50.797Z,925.82
2018-02-19T00:45:03.795Z,925.8
2018-02-19T00:45:15.402Z,925.79
2018-02-19T00:45:28.406Z,925.76
2018-02-19T00:45:41.475Z,925.74
2018-02-19T00:45:54.499Z,925.77
2018-02-19T00:46:07.083Z,925.78
2018-02-19T00:46:20.173Z,925.74
2018-02-19T00:46:32.692Z,925.75
2018-02-19T00:46:45.207Z,925.72
2018-02-19T00:46:58.266Z,925.72
2018-02-19T00:47:11.239Z,925.72
2018-02-19T00:47:23.779Z,925.7
2018-02-19T00:47:36.355Z,925.67
2018-02-19T00:47:48.910Z,925.71
2018-02-19T00:48:01.466Z,925.71
2018-02-19T00:48:14.505Z,925.7
2018-02-19T00:48:27.050Z,925.68
2018-02-19T00:48:39.614Z,925.64
2018-02-19T00:48:52.642Z,925.66
2018-02-19T00:49:05.671Z,925.68
2018-02-19T00:49:18.754Z,925.7
2018-02-19T00:49:31.288Z,925.69
2018-02-19T00:49:44.285Z,925.71
2018-02-19T00:49:57.278Z,925.69
2018-02-19T00:50:09.372Z,925.69
2018-02-19T00:50:22.422Z,925.7
2018-02-19T00:50:35.527Z,925.7
2018-02-19T00:50:48.548Z,925.71
2018-02-19T00:51:01.510Z,925.75
2018-02-19T00:51:14.057Z,925.71
2018-02-19T00:51:27.115Z,925.69
2018-02-19T00:51:39.706Z,925.72
2018-02-19T00:51:51.795Z,925.73
2018-02-19T00:52:04.867Z,925.73
2018-02-19T00:52:17.879Z,925.7
2018-02-19T00:52:30.885Z,925.75
2018-02-19T00:52:43.898Z,925.73
2018-02-19T00:52:56.955Z,925.72
2018-02-19T00:53:09.470Z,925.72
2018-02-19T00:53:22.495Z,925.73
2018-02-19T00:53:35.466Z,925.75
2018-02-19T00:53:48.084Z,925.74
2018-02-19T00:54:00.639Z,925.74
2018-02-19T00:54:12.716Z,925.75
2018-02-19T00:54:24.796Z,925.76
2018-02-19T00:54:36.897Z,925.74
2018-02-19T00:54:49.427Z,925.75
2018-02-19T00:55:02.414Z,925.8
2018-02-19T00:55:14.984Z,925.76
2018-02-19T00:55:27.515Z,925.77
2018-02-19T00:55:40.076Z,925.76
2018-02-19T00:55:53.141Z,925.75
2018-02-19T00:56:05.660Z,925.76
2018-02-19T00:56:17.758Z,925.77
2018-02-19T00:56:30.342Z,925.77
2018-02-19T00:56:43.366Z,925.74
2018-02-19T00:56:55.890Z,925.77
2018-02-19T00:57:08.958Z,925.79
2018-02-19T00:57:22.002Z,925.77
2018-02-19T00:57:34.592Z,925.76
2018-02-19T00:57:47.613Z,925.76
2018-02-19T00:58:00.625Z,925.76
2018-02-19T00:58:12.220Z,925.78
2018-02-19T00:58:25.224Z,925.8
2018-02-19T00:58:38.277Z,925.79
2018-02-19T00:58:50.856Z,925.78
2018-02-19T00:59:03.364Z,925.77
2018-02-19T00:59:15.965Z,925.8
2018-02-19T00:59:29.305Z,925.77
2018-02-19T00:59:41.890Z,925.76
2018-02-19T00:59:54.486Z,925.81
2018-02-19T01:00:07.480Z,925.77
2018-02-19T01:00:20.032Z,925.79
2018-02-19T01:00:32.645Z,925.82
2018-02-19T01:00:45.695Z,925.82
2018-02-19T01:00:58.716Z,925.82
2018-02-19T01:01:11.759Z,925.84
2018-02-19T01:01:24.808Z,925.81
2018-02-19T01:01:37.852Z,925.81
2018-02-19T01:01:50.898Z,925.79
2018-02-19T01:02:02.993Z,925.83
2018-02-19T01:02:14.646Z,925.83
2018-02-19T01:02:27.650Z,925.78
2018-02-19T01:02:40.220Z,925.83
2018-02-19T01:02:53.208Z,925.81
2018-02-19T01:03:05.763Z,925.79
2018-02-19T01:03:18.257Z,925.81
2018-02-19T01:03:31.229Z,925.8
2018-02-19T01:03:44.248Z,925.83
2018-02-19T01:03:57.304Z,925.8
2018-02-19T01:04:09.788Z,925.82
2018-02-19T01:04:23.035Z,925.78
2018-02-19T01:04:35.625Z,925.79
2018-02-19T01:04:48.667Z,925.79
2018-02-19T01:05:01.694Z,925.83
2018-02-19T01:05:14.200Z,925.8
2018-02-19T01:05:26.733Z,925.79
2018-02-19T01:05:39.275Z,925.79
2018-02-19T01:05:52.259Z,925.78
2018-02-19T01:06:05.269Z,925.78
2018-02-19T01:06:17.359Z,925.83
2018-02-19T01:06:30.372Z,925.83
2018-02-19T01:06:43.379Z,925.8
2018-02-19T01:06:56.446Z,925.8
2018-02-19T01:07:09.562Z,925.8
2018-02-19T01:07:21.699Z,925.83
2018-02-19T01:07:34.680Z,925.8
2018-02-19T01:07:46.798Z,925.8
2018-02-19T01:07:59.765Z,925.83
2018-02-19T01:08:11.860Z,925.81
2018-02-19T01:08:24.844Z,925.81
2018-02-19T01:08:37.846Z,925.82
2018-02-19T01:08:50.859Z,925.79
2018-02-19T01:09:03.842Z,925.83
2018-02-19T01:09:16.864Z,925.82
2018-02-19T01:09:29.940Z,925.81
2018-02-19T01:09:42.028Z,925.84
2018-02-19T01:09:54.577Z,925.83
2018-02-19T01:10:07.582Z,925.8
2018-02-19T01:10:20.170Z,925.78
2018-02-19T01:10:32.708Z,925.83
2018-02-19T01:10:45.224Z,925.8
2018-02-19T01:10:58.252Z,925.83
2018-02-19T01:11:11.261Z,925.82
2018-02-19T01:11:24.343Z,925.81
2018-02-19T01:11:37.365Z,925.86
2018-02-19T01:11:50.432Z,925.81
2018-02-19T01:12:03.406Z,925.84
2018-02-19T01:12:16.491Z,925.84
2018-02-19T01:12:29.486Z,925.84
2018-02-19T01:12:42.512Z,925.84
2018-02-19T01:12:55.110Z,925.88
2018-02-19T01:13:07.689Z,925.84
2018-02-19T01:13:20.202Z,925.85
2018-02-19T01:13:33.287Z,925.86
2018-02-19T01:13:45.775Z,925.9
2018-02-19T01:13:58.826Z,925.89
2018-02-19T01:14:11.836Z,925.87
2018-02-19T01:14:25.094Z,925.88
2018-02-19T01:14:37.655Z,925.89
2018-02-19T01:14:50.755Z,925.88
2018-02-19T01:15:03.794Z,925.84
2018-02-19T01:15:15.873Z,925.87
2018-02-19T01:15:28.884Z,925.88
2018-02-19T01:15:41.885Z,925.87
2018-02-19T01:15:54.933Z,925.84
2018-02-19T01:16:07.032Z,925.86
2018-02-19T01:16:19.125Z,925.85
2018-02-19T01:16:31.618Z,925.86
2018-02-19T01:16:44.601Z,925.85
2018-02-19T01:16:57.610Z,925.84
2018-02-19T01:17:10.186Z,925.87
2018-02-19T01:17:22.726Z,925.87
2018-02-19T01:17:35.298Z,925.85
2018-02-19T01:17:48.325Z,925.88
2018-02-19T01:18:00.924Z,925.85
2018-02-19T01:18:13.472Z,925.88
2018-02-19T01:18:26.483Z,925.9
2018-02-19T01:18:39.529Z,925.87
2018-02-19T01:18:52.584Z,925.9
2018-02-19T01:19:05.630Z,925.9
2018-02-19T01:19:18.182Z,925.9
2018-02-19T01:19:31.248Z,925.9
2018-02-19T01:19:43.807Z,925.9
2018-02-19T01:19:56.808Z,925.9
2018-02-19T01:20:09.380Z,925.92
2018-02-19T01:20:22.452Z,925.91
2018-02-19T01:20:35.467Z,925.89
2018-02-19T01:20:48.049Z,925.91
2018-02-19T01:21:01.069Z,925.89
2018-02-19T01:21:14.104Z,925.91
2018-02-19T01:21:26.640Z,925.94
2018-02-19T01:21:39.677Z,925.92
2018-02-19T01:21:52.239Z,925.93
2018-02-19T01:22:05.252Z,925.89
2018-02-19T01:22:17.413Z,925.94
2018-02-19T01:22:29.480Z,925.94
2018-02-19T01:22:42.541Z,925.92
2018-02-19T01:22:55.582Z,925.97
2018-02-19T01:23:08.134Z,925.93
2018-02-19T01:23:20.690Z,925.94
2018-02-19T01:23:33.313Z,925.96
2018-02-19T01:23:46.327Z,925.94
2018-02-19T01:23:59.346Z,925.94
2018-02-19T01:24:11.928Z,925.95
2018-02-19T01:24:24.452Z,925.91
2018-02-19T01:24:36.982Z,925.94
2018-02-19T01:24:49.545Z,925.89
2018-02-19T01:25:02.531Z,925.9
2018-02-19T01:25:15.519Z,925.92
2018-02-19T01:25:28.541Z,925.92
2018-02-19T01:25:41.154Z,925.92
2018-02-19T01:25:53.250Z,925.89
2018-02-19T01:26:06.225Z,925.89
2018-02-19T01:26:19.229Z,925.93
2018-02-19T01:26:31.743Z,925.91
2018-02-19T01:26:44.727Z,925.9
2018-02-19T01:26:57.245Z,925.87
2018-02-19T01:27:09.297Z,925.91
2018-02-19T01:27:21.877Z,925.92
2018-02-19T01:27:34.897Z,925.87
2018-02-19T01:27:47.936Z,925.9
2018-02-19T01:28:00.997Z,925.86
2018-02-19T01:28:14.016Z,925.9
2018-02-19T01:28:26.597Z,925.9
2018-02-19T01:28:39.680Z,925.87
2018-02-19T01:28:52.267Z,925.87
2018-02-19T01:29:05.296Z,925.89
2018-02-19T01:29:18.344Z,925.82
2018-02-19T01:29:30.465Z,925.85
2018-02-19T01:29:44.300Z,925.86
2018-02-19T01:29:56.829Z,925.83
2018-02-19T01:30:09.852Z,925.86
2018-02-19T01:30:22.949Z,925.86
2018-02-19T01:30:36.004Z,925.83
2018-02-19T01:30:49.110Z,925.84
2018-02-19T01:31:02.107Z,925.86
2018-02-19T01:31:15.137Z,925.85
2018-02-19T01:31:28.184Z,925.86
2018-02-19T01:31:40.707Z,925.81
2018-02-19T01:31:52.815Z,925.84
2018-02-19T01:32:05.853Z,925.86
2018-02-19T01:32:17.903Z,925.81
2018-02-19T01:32:30.459Z,925.82
2018-02-19T01:32:43.021Z,925.84
2018-02-19T01:32:56.053Z,925.8
2018-02-19T01:33:09.072Z,925.82
2018-02-19T01:33:21.700Z,925.83
2018-02-19T01:33:34.750Z,925.84
2018-02-19T01:33:47.311Z,925.81
2018-02-19T01:34:00.270Z,925.82
2018-02-19T01:34:11.913Z,925.86
2018-02-19T01:34:24.899Z,925.85
2018-02-19T01:34:37.479Z,925.82
2018-02-19T01:34:50.512Z,925.82
2018-02-19T01:35:03.495Z,925.84
2018-02-19T01:35:16.083Z,925.84
2018-02-19T01:35:28.593Z,925.85
2018-02-19T01:35:41.632Z,925.83
2018-02-19T01:35:54.695Z,925.82
2018-02-19T01:36:07.265Z,925.83
2018-02-19T01:36:19.802Z,925.86
2018-02-19T01:36:32.818Z,925.84
2018-02-19T01:36:45.828Z,925.84
2018-02-19T01:36:58.405Z,925.83
2018-02-19T01:37:11.454Z,925.81
2018-02-19T01:37:24.015Z,925.83
2018-02-19T01:37:36.556Z,925.84
2018-02-19T01:37:49.617Z,925.85
2018-02-19T01:38:02.142Z,925.85
2018-02-19T01:38:14.682Z,925.82
2018-02-19T01:38:27.733Z,925.81
2018-02-19T01:38:40.784Z,925.81
2018-02-19T01:38:53.852Z,925.83
2018-02-19T01:39:06.926Z,925.84
2018-02-19T01:39:19.953Z,925.85
2018-02-19T01:39:32.461Z,925.82
2018-02-19T01:39:45.417Z,925.83
2018-02-19T01:39:57.926Z,925.83
2018-02-19T01:40:10.004Z,925.88
2018-02-19T01:40:22.068Z,925.87
2018-02-19T01:40:34.663Z,925.86
2018-02-19T01:40:47.214Z,925.85
2018-02-19T01:41:00.263Z,925.88
2018-02-19T01:41:13.261Z,925.87
2018-02-19T01:41:26.272Z,925.85
2018-02-19T01:41:38.387Z,925.88
2018-02-19T01:41:51.439Z,925.87
2018-02-19T01:42:04.440Z,925.84
2018-02-19T01:42:17.457Z,925.85
2018-02-19T01:42:29.540Z,925.86
2018-02-19T01:42:42.552Z,925.89
2018-02-19T01:42:55.100Z,925.89
2018-02-19T01:43:07.655Z,925.88
2018-02-19T01:43:20.690Z,925.87
2018-02-19T01:43:33.263Z,925.89
2018-02-19T01:43:46.234Z,925.9
2018-02-19T01:43:59.282Z,925.91
2018-02-19T01:44:12.343Z,925.88
2018-02-19T01:44:25.317Z,925.88
2018-02-19T01:44:38.307Z,925.86
2018-02-19T01:44:51.547Z,925.89
2018-02-19T01:45:04.592Z,925.85
2018-02-19T01:45:17.658Z,925.91
2018-02-19T01:45:30.193Z,925.92
2018-02-19T01:45:42.765Z,925.9
2018-02-19T01:45:55.836Z,925.87
2018-02-19T01:46:08.876Z,925.88
2018-02-19T01:46:21.446Z,925.91
2018-02-19T01:46:33.552Z,925.88
2018-02-19T01:46:46.062Z,925.88
2018-02-19T01:46:59.060Z,925.87
2018-02-19T01:47:11.665Z,925.87
2018-02-19T01:47:24.676Z,925.88
2018-02-19T01:47:37.761Z,925.92
2018-02-19T01:47:49.825Z,925.92
2018-02-19T01:48:02.888Z,925.88
2018-02-19T01:48:15.465Z,925.9
2018-02-19T01:48:28.019Z,925.87
2018-02-19T01:48:40.580Z,925.9
2018-02-19T01:48:53.111Z,925.87
2018-02-19T01:49:05.661Z,925.87
2018-02-19T01:49:18.665Z,925.85
2018-02-19T01:49:31.732Z,925.85
2018-02-19T01:49:44.280Z,925.86
2018-02-19T01:49:56.825Z,925.86
2018-02-19T01:50:09.882Z,925.85
2018-02-19T01:50:22.881Z,925.85
2018-02-19T01:50:35.932Z,925.85
2018-02-19T01:50:48.508Z,925.86
2018-02-19T01:51:01.578Z,925.84
2018-02-19T01:51:14.603Z,925.85
2018-02-19T01:51:27.599Z,925.85
2018-02-19T01:51:40.640Z,925.8
2018-02-19T01:51:53.627Z,925.82
2018-02-19T01:52:06.673Z,925.83
2018-02-19T01:52:19.728Z,925.83
2018-02-19T01:52:32.780Z,925.81
2018-02-19T01:52:45.795Z,925.81
2018-02-19T01:52:58.412Z,925.81
2018-02-19T01:53:11.496Z,925.8
2018-02-19T01:53:24.574Z,925.81
2018-02-19T01:53:37.585Z,925.81
2018-02-19T01:53:50.640Z,925.8
2018-02-19T01:54:03.208Z,925.82
2018-02-19T01:54:16.229Z,925.85
2018-02-19T01:54:28.302Z,925.79
2018-02-19T01:54:41.293Z,925.79
2018-02-19T01:54:54.382Z,925.81
2018-02-19T01:55:07.402Z,925.8
2018-02-19T01:55:20.375Z,925.77
2018-02-19T01:55:32.490Z,925.81
2018-02-19T01:55:45.050Z,925.79
2018-02-19T01:55:58.118Z,925.78
2018-02-19T01:56:11.094Z,925.76
2018-02-19T01:56:23.663Z,925.76
2018-02-19T01:56:36.707Z,925.76
2018-02-19T01:56:49.217Z,925.74
2018-02-19T01:57:01.263Z,925.75
2018-02-19T01:57:14.259Z,925.73
2018-02-19T01:57:27.309Z,925.74
2018-02-19T01:57:39.844Z,925.71
2018-02-19T01:57:52.864Z,925.7
2018-02-19T01:58:04.972Z,925.7
2018-02-19T01:58:17.598Z,925.7
2018-02-19T01:58:30.180Z,925.68
2018-02-19T01:58:43.184Z,925.67
2018-02-19T01:58:56.207Z,925.68
2018-02-19T01:59:09.283Z,925.68
2018-02-19T01:59:21.862Z,925.68
2018-02-19T01:59:34.847Z,925.67
2018-02-19T01:59:48.662Z,925.64
2018-02-19T02:00:01.679Z,925.64
2018-02-19T02:00:14.237Z,925.65
2018-02-19T02:00:26.791Z,925.67
2018-02-19T02:00:39.777Z,925.64
2018-02-19T02:00:52.358Z,925.64
2018-02-19T02:01:04.916Z,925.61
2018-02-19T02:01:17.974Z,925.65
2018-02-19T02:01:30.962Z,925.64
2018-02-19T02:01:43.525Z,925.63
2018-02-19T02:01:55.617Z,925.66
2018-02-19T02:02:08.654Z,925.63
2018-02-19T02:02:21.200Z,925.63
2018-02-19T02:02:33.293Z,925.62
2018-02-19T02:02:46.311Z,925.61
2018-02-19T02:02:58.911Z,925.61
2018-02-19T02:03:10.992Z,925.59
2018-02-19T02:03:23.976Z,925.64
2018-02-19T02:03:36.515Z,925.6
2018-02-19T02:03:49.094Z,925.63
2018-02-19T02:04:02.124Z,925.61
2018-02-19T02:04:15.150Z,925.61
2018-02-19T02:04:28.180Z,925.6
2018-02-19T02:04:40.229Z,925.6
2018-02-19T02:04:53.447Z,925.6
2018-02-19T02:05:05.981Z,925.64
2018-02-19T02:05:18.033Z,925.6
2018-02-19T02:05:30.622Z,925.63
2018-02-19T02:05:43.153Z,925.58
2018-02-19T02:05:56.244Z,925.59
2018-02-19T02:06:08.803Z,925.62
2018-02-19T02:06:20.941Z,925.6
2018-02-19T02:06:33.494Z,925.62
2018-02-19T02:06:46.522Z,925.62
2018-02-19T02:06:59.533Z,925.64
2018-02-19T02:07:12.105Z,925.62
2018-02-19T02:07:24.634Z,925.61
2018-02-19T02:07:37.203Z,925.64
2018-02-19T02:07:50.266Z,925.64
2018-02-19T02:08:03.290Z,925.59
2018-02-19T02:08:16.305Z,925.57
2018-02-19T02:08:29.292Z,925.6
2018-02-19T02:08:42.298Z,925.62
2018-02-19T02:08:55.337Z,925.58
2018-02-19T02:09:07.841Z,925.6
2018-02-19T02:09:20.890Z,925.58
2018-02-19T02:09:33.887Z,925.56
2018-02-19T02:09:46.889Z,925.58
2018-02-19T02:09:59.913Z,925.57
2018-02-19T02:10:12.474Z,925.57
2018-02-19T02:10:25.508Z,925.58
2018-02-19T02:10:38.055Z,925.57
2018-02-19T02:10:50.673Z,925.57
2018-02-19T02:11:03.270Z,925.58
2018-02-19T02:11:16.315Z,925.56
2018-02-19T02:11:29.296Z,925.6
2018-02-19T02:11:42.329Z,925.57
2018-02-19T02:11:54.894Z,925.59
2018-02-19T02:12:06.973Z,925.57
2018-02-19T02:12:19.542Z,925.6
2018-02-19T02:12:32.590Z,925.64
2018-02-19T02:12:45.583Z,925.61
2018-02-19T02:12:58.653Z,925.6
2018-02-19T02:13:11.195Z,925.62
2018-02-19T02:13:23.711Z,925.62
2018-02-19T02:13:36.761Z,925.6
2018-02-19T02:13:48.350Z,925.61
2018-02-19T02:14:01.332Z,925.63
2018-02-19T02:14:14.364Z,925.61
2018-02-19T02:14:26.420Z,925.61
2018-02-19T02:14:39.417Z,925.63
2018-02-19T02:14:52.472Z,925.63
2018-02-19T02:15:05.680Z,925.62
2018-02-19T02:15:18.725Z,925.61
2018-02-19T02:15:31.791Z,925.6
2018-02-19T02:15:44.765Z,925.63
2018-02-19T02:15:57.798Z,925.65
2018-02-19T02:16:09.424Z,925.63
2018-02-19T02:16:21.900Z,925.61
2018-02-19T02:16:34.480Z,925.6
2018-02-19T02:16:47.480Z,925.65
2018-02-19T02:17:00.501Z,925.65
2018-02-19T02:17:13.517Z,925.62
2018-02-19T02:17:26.537Z,925.62
2018-02-19T02:17:39.581Z,925.63
2018-02-19T02:17:52.615Z,925.64
2018-02-19T02:18:05.651Z,925.67
2018-02-19T02:18:18.657Z,925.66
2018-02-19T02:18:31.212Z,925.68
2018-02-19T02:18:44.248Z,925.66
2018-02-19T02:18:57.241Z,925.68
2018-02-19T02:19:09.765Z,925.67
2018-02-19T02:19:22.830Z,925.67
2018-02-19T02:19:35.384Z,925.68
2018-02-19T02:19:48.379Z,925.69
2018-02-19T02:20:00.928Z,925.7
2018-02-19T02:20:13.558Z,925.71
2018-02-19T02:20:26.573Z,925.7
2018-02-19T02:20:39.596Z,925.71
2018-02-19T02:20:52.627Z,925.7
2018-02-19T02:21:05.702Z,925.72
2018-02-19T02:21:18.295Z,925.7
2018-02-19T02:21:30.846Z,925.68
2018-02-19T02:21:42.926Z,925.68
2018-02-19T02:21:55.472Z,925.7
2018-02-19T02:22:08.560Z,925.69
2018-02-19T02:22:21.592Z,925.71
2018-02-19T02:22:34.122Z,925.73
2018-02-19T02:22:46.652Z,925.71
2018-02-19T02:22:59.662Z,925.76
2018-02-19T02:23:11.793Z,925.71
2018-02-19T02:23:24.767Z,925.72
2018-02-19T02:23:37.332Z,925.72
2018-02-19T02:23:49.865Z,925.69
2018-02-19T02:24:02.888Z,925.71
2018-02-19T02:24:15.836Z,925.71
2018-02-19T02:24:28.825Z,925.7
2018-02-19T02:24:41.448Z,925.72
2018-02-19T02:24:54.435Z,925.71
2018-02-19T02:25:06.993Z,925.71
2018-02-19T02:25:19.987Z,925.72
2018-02-19T02:25:33.009Z,925.7
2018-02-19T02:25:46.009Z,925.71
2018-02-19T02:25:59.049Z,925.69
2018-02-19T02:26:12.070Z,925.7
2018-02-19T02:26:25.087Z,925.72
2018-02-19T02:26:37.150Z,925.7
2018-02-19T02:26:50.208Z,925.71
2018-02-19T02:27:03.221Z,925.72
2018-02-19T02:27:15.740Z,925.69
2018-02-19T02:27:28.349Z,925.71
2018-02-19T02:27:41.371Z,925.7
2018-02-19T02:27:54.416Z,925.7
2018-02-19T02:28:06.980Z,925.71
2018-02-19T02:28:19.963Z,925.74
2018-02-19T02:28:32.949Z,925.68
2018-02-19T02:28:45.036Z,925.72
2018-02-19T02:28:58.108Z,925.69
2018-02-19T02:29:11.226Z,925.72
2018-02-19T02:29:23.793Z,925.7
2018-02-19T02:29:36.371Z,925.68
2018-02-19T02:29:49.391Z,925.69
2018-02-19T02:30:02.383Z,925.67
2018-02-19T02:30:14.469Z,925.69
2018-02-19T02:30:27.050Z,925.69
2018-02-19T02:30:39.680Z,925.68
2018-02-19T02:30:52.732Z,925.66
2018-02-19T02:31:05.791Z,925.67
2018-02-19T02:31:18.353Z,925.65
2018-02-19T02:31:31.377Z,925.66
2018-02-19T02:31:44.477Z,925.67
2018-02-19T02:31:57.491Z,925.67
2018-02-19T02:32:09.128Z,925.66
2018-02-19T02:32:22.147Z,925.68
2018-02-19T02:32:34.209Z,925.65
2018-02-19T02:32:47.199Z,925.65
2018-02-19T02:33:00.169Z,925.65
2018-02-19T02:33:13.256Z,925.63
2018-02-19T02:33:25.339Z,925.62
2018-02-19T02:33:38.330Z,925.61
2018-02-19T02:33:51.322Z,925.62
2018-02-19T02:34:03.879Z,925.61
2018-02-19T02:34:16.471Z,925.6
2018-02-19T02:34:29.004Z,925.63
2018-02-19T02:34:41.048Z,925.58
2018-02-19T02:34:54.064Z,925.6
2018-02-19T02:35:06.801Z,925.6
2018-02-19T02:35:19.430Z,925.6
2018-02-19T02:35:32.458Z,925.6
2018-02-19T02:35:45.477Z,925.58
2018-02-19T02:35:57.557Z,925.6
2018-02-19T02:36:10.703Z,925.55
2018-02-19T02:36:23.748Z,925.58
2018-02-19T02:36:36.797Z,925.57
2018-02-19T02:36:49.389Z,925.58
2018-02-19T02:37:01.528Z,925.57
2018-02-19T02:37:14.594Z,925.55
2018-02-19T02:37:27.634Z,925.58
2018-02-19T02:37:40.208Z,925.57
2018-02-19T02:37:52.783Z,925.59
2018-02-19T02:38:05.357Z,925.58
2018-02-19T02:38:17.960Z,925.61
2018-02-19T02:38:29.618Z,925.57
2018-02-19T02:38:42.189Z,925.62
2018-02-19T02:38:55.230Z,925.58
2018-02-19T02:39:08.231Z,925.59
2018-02-19T02:39:20.762Z,925.61
2018-02-19T02:39:33.370Z,925.63
2018-02-19T02:39:46.412Z,925.61
2018-02-19T02:39:59.409Z,925.6